LFPM 201900Z AUTO 34006KT 9999 VCTS ///CB 19/18 Q1005

Les avions qui composent notre flotte

Avion Robin DR400 2+2

L'avion école par excellence

F-GAVN
   * tarif promotionnel appliqué pendant la formation des élèves non brevetés


F-GAVN Planche